sensor_id;sensor_type;location;lat;lon;timestamp;pressure;altitude;pressure_sealevel;temperature;humidity
64460;BME280;50828;53.756;21.140;2023-02-17T00:04:53;99930.04;;;2.85;75.33
64460;BME280;50828;53.756;21.140;2023-02-17T00:10:01;99922.34;;;2.88;75.24
64460;BME280;50828;53.756;21.140;2023-02-17T00:15:09;99926.95;;;2.96;75.27
64460;BME280;50828;53.756;21.140;2023-02-17T00:20:17;99925.70;;;2.98;75.31
64460;BME280;50828;53.756;21.140;2023-02-17T00:25:25;99923.39;;;3.03;75.19
64460;BME280;50828;53.756;21.140;2023-02-17T00:30:33;99921.93;;;3.08;75.21
64460;BME280;50828;53.756;21.140;2023-02-17T00:35:44;99912.84;;;3.11;75.30
64460;BME280;50828;53.756;21.140;2023-02-17T00:40:51;99913.31;;;3.15;75.16
64460;BME280;50828;53.756;21.140;2023-02-17T00:45:59;99905.44;;;3.18;75.17
64460;BME280;50828;53.756;21.140;2023-02-17T00:51:09;99907.48;;;3.22;75.23
64460;BME280;50828;53.756;21.140;2023-02-17T00:56:17;99906.77;;;3.24;75.21
64460;BME280;50828;53.756;21.140;2023-02-17T01:01:25;99904.98;;;3.26;75.33
64460;BME280;50828;53.756;21.140;2023-02-17T01:06:37;99909.78;;;3.33;75.14
64460;BME280;50828;53.756;21.140;2023-02-17T01:11:45;99909.39;;;3.35;75.25
64460;BME280;50828;53.756;21.140;2023-02-17T01:16:52;99899.81;;;3.36;75.25
64460;BME280;50828;53.756;21.140;2023-02-17T01:21:59;99896.81;;;3.39;75.26
64460;BME280;50828;53.756;21.140;2023-02-17T01:27:07;99892.26;;;3.41;75.26
64460;BME280;50828;53.756;21.140;2023-02-17T01:32:15;99876.42;;;3.40;75.18
64460;BME280;50828;53.756;21.140;2023-02-17T01:37:24;99879.30;;;3.45;75.26
64460;BME280;50828;53.756;21.140;2023-02-17T01:42:32;99868.98;;;3.49;75.29
64460;BME280;50828;53.756;21.140;2023-02-17T01:47:40;99867.17;;;3.54;75.34
64460;BME280;50828;53.756;21.140;2023-02-17T01:52:51;99864.50;;;3.57;75.18
64460;BME280;50828;53.756;21.140;2023-02-17T01:58:02;99858.39;;;3.60;75.22
64460;BME280;50828;53.756;21.140;2023-02-17T02:03:13;99852.23;;;3.62;75.40
64460;BME280;50828;53.756;21.140;2023-02-17T02:08:21;99848.33;;;3.66;75.25
64460;BME280;50828;53.756;21.140;2023-02-17T02:13:29;99842.52;;;3.70;75.31
64460;BME280;50828;53.756;21.140;2023-02-17T02:18:45;99837.45;;;3.72;75.26
64460;BME280;50828;53.756;21.140;2023-02-17T02:24:09;99835.66;;;3.74;75.32
64460;BME280;50828;53.756;21.140;2023-02-17T02:29:48;99826.63;;;3.73;75.52
64460;BME280;50828;53.756;21.140;2023-02-17T02:35:06;99825.52;;;3.77;75.50
64460;BME280;50828;53.756;21.140;2023-02-17T02:40:16;99823.84;;;3.83;75.34
64460;BME280;50828;53.756;21.140;2023-02-17T02:45:26;99815.64;;;3.84;75.34
64460;BME280;50828;53.756;21.140;2023-02-17T02:50:46;99816.25;;;3.89;75.43
64460;BME280;50828;53.756;21.140;2023-02-17T02:56:00;99809.95;;;3.91;75.43
64460;BME280;50828;53.756;21.140;2023-02-17T03:01:14;99805.17;;;3.94;75.30
64460;BME280;50828;53.756;21.140;2023-02-17T03:06:28;99805.13;;;3.98;75.34
64460;BME280;50828;53.756;21.140;2023-02-17T03:11:38;99805.08;;;4.00;75.36
64460;BME280;50828;53.756;21.140;2023-02-17T03:16:46;99803.33;;;4.00;75.38
64460;BME280;50828;53.756;21.140;2023-02-17T03:21:59;99804.38;;;4.01;75.27
64460;BME280;50828;53.756;21.140;2023-02-17T03:27:09;99806.82;;;4.00;75.40
64460;BME280;50828;53.756;21.140;2023-02-17T03:32:17;99801.65;;;3.97;75.42
64460;BME280;50828;53.756;21.140;2023-02-17T03:37:25;99797.41;;;3.99;75.51
64460;BME280;50828;53.756;21.140;2023-02-17T03:42:32;99800.17;;;4.01;75.45
64460;BME280;50828;53.756;21.140;2023-02-17T03:47:40;99796.66;;;4.02;75.45
64460;BME280;50828;53.756;21.140;2023-02-17T03:52:48;99793.33;;;4.04;75.53
64460;BME280;50828;53.756;21.140;2023-02-17T03:57:55;99790.17;;;4.06;75.61
64460;BME280;50828;53.756;21.140;2023-02-17T04:03:03;99787.15;;;4.08;75.57
64460;BME280;50828;53.756;21.140;2023-02-17T04:08:10;99775.54;;;4.05;75.55
64460;BME280;50828;53.756;21.140;2023-02-17T04:13:18;99782.75;;;4.11;75.53
64460;BME280;50828;53.756;21.140;2023-02-17T04:18:25;99770.95;;;4.09;75.48
64460;BME280;50828;53.756;21.140;2023-02-17T04:23:34;99768.76;;;4.13;75.47
64460;BME280;50828;53.756;21.140;2023-02-17T04:28:43;99759.66;;;4.16;75.67
64460;BME280;50828;53.756;21.140;2023-02-17T04:33:50;99751.23;;;4.18;75.53
64460;BME280;50828;53.756;21.140;2023-02-17T04:38:58;99747.68;;;4.21;75.61
64460;BME280;50828;53.756;21.140;2023-02-17T04:44:06;99735.16;;;4.20;75.59
64460;BME280;50828;53.756;21.140;2023-02-17T04:49:13;99736.13;;;4.24;75.55
64460;BME280;50828;53.756;21.140;2023-02-17T04:54:21;99724.94;;;4.25;75.71
64460;BME280;50828;53.756;21.140;2023-02-17T04:59:29;99716.73;;;4.26;75.59
64460;BME280;50828;53.756;21.140;2023-02-17T05:04:36;99706.92;;;4.28;75.69
64460;BME280;50828;53.756;21.140;2023-02-17T05:09:44;99708.13;;;4.29;75.82
64460;BME280;50828;53.756;21.140;2023-02-17T05:14:52;99718.73;;;4.31;75.82
64460;BME280;50828;53.756;21.140;2023-02-17T05:20:00;99714.16;;;4.33;75.86
64460;BME280;50828;53.756;21.140;2023-02-17T05:25:08;99714.11;;;4.35;75.94
64460;BME280;50828;53.756;21.140;2023-02-17T05:30:16;99713.01;;;4.38;75.92
64460;BME280;50828;53.756;21.140;2023-02-17T05:35:24;99714.02;;;4.39;76.01
64460;BME280;50828;53.756;21.140;2023-02-17T05:40:32;99718.65;;;4.43;75.99
64460;BME280;50828;53.756;21.140;2023-02-17T05:45:40;99711.09;;;4.45;75.99
64460;BME280;50828;53.756;21.140;2023-02-17T05:50:48;99710.87;;;4.48;76.30
64460;BME280;50828;53.756;21.140;2023-02-17T05:55:56;99704.03;;;4.50;76.29
64460;BME280;50828;53.756;21.140;2023-02-17T06:01:08;99703.83;;;4.51;76.38
64460;BME280;50828;53.756;21.140;2023-02-17T06:06:16;99701.16;;;4.53;76.34
64460;BME280;50828;53.756;21.140;2023-02-17T06:11:25;99697.14;;;4.54;76.36
64460;BME280;50828;53.756;21.140;2023-02-17T06:16:33;99690.27;;;4.57;76.26
64460;BME280;50828;53.756;21.140;2023-02-17T06:21:40;99686.02;;;4.59;76.47
64460;BME280;50828;53.756;21.140;2023-02-17T06:26:48;99681.11;;;4.61;76.40
64460;BME280;50828;53.756;21.140;2023-02-17T06:31:56;99680.02;;;4.64;76.43
64460;BME280;50828;53.756;21.140;2023-02-17T06:37:04;99671.80;;;4.63;76.37
64460;BME280;50828;53.756;21.140;2023-02-17T06:42:12;99664.42;;;4.66;76.59
64460;BME280;50828;53.756;21.140;2023-02-17T06:47:20;99662.67;;;4.66;76.67
64460;BME280;50828;53.756;21.140;2023-02-17T06:52:28;99664.73;;;4.68;76.38
64460;BME280;50828;53.756;21.140;2023-02-17T06:57:36;99662.59;;;4.70;76.49
64460;BME280;50828;53.756;21.140;2023-02-17T07:02:43;99662.73;;;4.71;76.72
64460;BME280;50828;53.756;21.140;2023-02-17T07:07:52;99655.84;;;4.67;76.82
64460;BME280;50828;53.756;21.140;2023-02-17T07:13:01;99666.97;;;4.76;76.61
64460;BME280;50828;53.756;21.140;2023-02-17T07:18:09;99664.83;;;4.78;76.70
64460;BME280;50828;53.756;21.140;2023-02-17T07:23:17;99661.64;;;4.81;76.88
64460;BME280;50828;53.756;21.140;2023-02-17T07:28:25;99665.22;;;4.84;76.61
64460;BME280;50828;53.756;21.140;2023-02-17T07:33:33;99661.20;;;4.85;76.75
64460;BME280;50828;53.756;21.140;2023-02-17T07:38:42;99663.37;;;4.88;76.78
64460;BME280;50828;53.756;21.140;2023-02-17T07:43:52;99660.59;;;4.88;76.89
64460;BME280;50828;53.756;21.140;2023-02-17T07:49:03;99663.83;;;4.91;77.04
64460;BME280;50828;53.756;21.140;2023-02-17T07:54:12;99660.27;;;4.93;77.04
64460;BME280;50828;53.756;21.140;2023-02-17T07:59:19;99646.91;;;4.91;76.93
64460;BME280;50828;53.756;21.140;2023-02-17T08:04:27;99644.65;;;4.99;76.94
64460;BME280;50828;53.756;21.140;2023-02-17T08:09:36;99636.23;;;5.00;76.92
64460;BME280;50828;53.756;21.140;2023-02-17T08:15:02;99629.92;;;5.01;76.85
64460;BME280;50828;53.756;21.140;2023-02-17T08:20:10;99620.77;;;5.04;77.19
64460;BME280;50828;53.756;21.140;2023-02-17T08:25:21;99616.15;;;5.07;77.03
64460;BME280;50828;53.756;21.140;2023-02-17T08:30:29;99617.64;;;5.10;77.16
64460;BME280;50828;53.756;21.140;2023-02-17T08:35:37;99617.61;;;5.11;77.06
64460;BME280;50828;53.756;21.140;2023-02-17T08:40:49;99614.42;;;5.13;76.99
64460;BME280;50828;53.756;21.140;2023-02-17T08:45:58;99608.10;;;5.14;77.03
64460;BME280;50828;53.756;21.140;2023-02-17T08:51:06;99601.77;;;5.17;77.18
64460;BME280;50828;53.756;21.140;2023-02-17T08:56:15;99599.66;;;5.17;76.93
64460;BME280;50828;53.756;21.140;2023-02-17T09:01:25;99594.42;;;5.17;77.00
64460;BME280;50828;53.756;21.140;2023-02-17T09:06:38;99593.55;;;5.17;77.00
64460;BME280;50828;53.756;21.140;2023-02-17T09:11:47;99583.77;;;5.17;76.92
64460;BME280;50828;53.756;21.140;2023-02-17T09:16:57;99574.89;;;5.16;76.91
64460;BME280;50828;53.756;21.140;2023-02-17T09:22:04;99577.33;;;5.16;76.92
64460;BME280;50828;53.756;21.140;2023-02-17T09:27:13;99573.14;;;5.17;77.03
64460;BME280;50828;53.756;21.140;2023-02-17T09:32:20;99568.23;;;5.17;77.04
64460;BME280;50828;53.756;21.140;2023-02-17T09:37:28;99563.17;;;5.17;76.96
64460;BME280;50828;53.756;21.140;2023-02-17T09:42:38;99554.27;;;5.17;76.98
64460;BME280;50828;53.756;21.140;2023-02-17T09:47:48;99558.45;;;5.17;76.94
64460;BME280;50828;53.756;21.140;2023-02-17T09:52:59;99546.55;;;5.18;77.13
64460;BME280;50828;53.756;21.140;2023-02-17T09:58:13;99542.68;;;5.19;77.12
64460;BME280;50828;53.756;21.140;2023-02-17T10:03:26;99548.73;;;5.21;77.03
64460;BME280;50828;53.756;21.140;2023-02-17T10:08:42;99538.75;;;5.23;77.17
64460;BME280;50828;53.756;21.140;2023-02-17T10:13:53;99526.99;;;5.25;77.30
64460;BME280;50828;53.756;21.140;2023-02-17T10:19:09;99514.54;;;5.27;77.37
64460;BME280;50828;53.756;21.140;2023-02-17T10:24:20;99500.13;;;5.30;77.49
64460;BME280;50828;53.756;21.140;2023-02-17T10:29:33;99490.09;;;5.33;77.34
64460;BME280;50828;53.756;21.140;2023-02-17T10:34:52;99486.84;;;5.37;77.50
64460;BME280;50828;53.756;21.140;2023-02-17T10:40:13;99475.02;;;5.42;77.36
64460;BME280;50828;53.756;21.140;2023-02-17T10:45:26;99470.75;;;5.44;77.40
64460;BME280;50828;53.756;21.140;2023-02-17T10:50:37;99465.09;;;5.46;77.30
64460;BME280;50828;53.756;21.140;2023-02-17T10:55:55;99456.99;;;5.48;77.49
64460;BME280;50828;53.756;21.140;2023-02-17T11:01:06;99441.20;;;5.50;77.36
64460;BME280;50828;53.756;21.140;2023-02-17T11:06:19;99424.50;;;5.55;77.36
64460;BME280;50828;53.756;21.140;2023-02-17T11:11:29;99416.70;;;5.58;77.60
64460;BME280;50828;53.756;21.140;2023-02-17T11:16:40;99399.98;;;5.63;77.34
64460;BME280;50828;53.756;21.140;2023-02-17T11:21:48;99387.77;;;5.67;77.33
64460;BME280;50828;53.756;21.140;2023-02-17T11:26:59;99378.20;;;5.72;77.38
64460;BME280;50828;53.756;21.140;2023-02-17T11:32:09;99361.30;;;5.76;77.33
64460;BME280;50828;53.756;21.140;2023-02-17T11:37:22;99350.71;;;5.79;77.42
64460;BME280;50828;53.756;21.140;2023-02-17T11:42:33;99338.70;;;5.82;77.31
64460;BME280;50828;53.756;21.140;2023-02-17T11:47:47;99323.94;;;5.85;77.15
64460;BME280;50828;53.756;21.140;2023-02-17T11:58:42;99296.32;;;5.91;77.16
64460;BME280;50828;53.756;21.140;2023-02-17T12:04:24;99281.70;;;5.94;77.09
64460;BME280;50828;53.756;21.140;2023-02-17T12:09:37;99268.20;;;5.96;77.09
64460;BME280;50828;53.756;21.140;2023-02-17T12:15:06;99257.15;;;5.97;77.13
64460;BME280;50828;53.756;21.140;2023-02-17T12:20:32;99242.73;;;6.00;77.27
64460;BME280;50828;53.756;21.140;2023-02-17T12:25:48;99227.91;;;6.03;77.06
64460;BME280;50828;53.756;21.140;2023-02-17T12:31:02;99218.19;;;6.07;77.13
64460;BME280;50828;53.756;21.140;2023-02-17T12:36:19;99206.72;;;6.10;77.09
64460;BME280;50828;53.756;21.140;2023-02-17T12:41:29;99201.73;;;6.13;77.00
64460;BME280;50828;53.756;21.140;2023-02-17T12:46:40;99194.31;;;6.14;77.10
64460;BME280;50828;53.756;21.140;2023-02-17T12:51:51;99189.66;;;6.17;77.30
64460;BME280;50828;53.756;21.140;2023-02-17T12:57:14;99178.41;;;6.19;77.07
64460;BME280;50828;53.756;21.140;2023-02-17T13:02:25;99165.98;;;6.19;77.13
64460;BME280;50828;53.756;21.140;2023-02-17T13:07:41;99150.58;;;6.20;77.00
64460;BME280;50828;53.756;21.140;2023-02-17T13:13:02;99135.69;;;6.20;76.91
64460;BME280;50828;53.756;21.140;2023-02-17T13:18:25;99115.60;;;6.20;76.87
64460;BME280;50828;53.756;21.140;2023-02-17T13:23:39;99104.61;;;6.20;76.94
64460;BME280;50828;53.756;21.140;2023-02-17T13:28:49;99094.96;;;6.20;76.92
64460;BME280;50828;53.756;21.140;2023-02-17T13:33:59;99083.75;;;6.21;76.81
64460;BME280;50828;53.756;21.140;2023-02-17T13:39:32;99072.02;;;6.22;76.75
64460;BME280;50828;53.756;21.140;2023-02-17T13:44:42;99056.98;;;6.21;76.94
64460;BME280;50828;53.756;21.140;2023-02-17T13:49:55;99048.29;;;6.20;77.05
64460;BME280;50828;53.756;21.140;2023-02-17T13:55:06;99038.70;;;6.20;77.04
64460;BME280;50828;53.756;21.140;2023-02-17T14:00:22;99029.27;;;6.19;76.99
64460;BME280;50828;53.756;21.140;2023-02-17T14:05:39;99016.54;;;6.18;76.93
64460;BME280;50828;53.756;21.140;2023-02-17T14:10:49;99004.31;;;6.18;77.15
64460;BME280;50828;53.756;21.140;2023-02-17T14:15:59;98989.98;;;6.18;77.03
64460;BME280;50828;53.756;21.140;2023-02-17T14:21:09;98974.80;;;6.17;76.90
64460;BME280;50828;53.756;21.140;2023-02-17T14:26:29;98965.75;;;6.16;77.09
64460;BME280;50828;53.756;21.140;2023-02-17T14:31:43;98953.19;;;6.16;76.96
64460;BME280;50828;53.756;21.140;2023-02-17T14:36:51;98948.48;;;6.16;77.02
64460;BME280;50828;53.756;21.140;2023-02-17T14:42:00;98935.77;;;6.15;77.16
64460;BME280;50828;53.756;21.140;2023-02-17T14:47:09;98920.56;;;6.14;77.20
64460;BME280;50828;53.756;21.140;2023-02-17T14:52:20;98909.80;;;6.13;77.18
64460;BME280;50828;53.756;21.140;2023-02-17T14:57:28;98902.14;;;6.12;77.14
64460;BME280;50828;53.756;21.140;2023-02-17T15:02:35;98874.52;;;6.03;77.14
64460;BME280;50828;53.756;21.140;2023-02-17T15:07:44;98876.15;;;6.10;77.08
64460;BME280;50828;53.756;21.140;2023-02-17T15:12:54;98866.38;;;6.10;77.12
64460;BME280;50828;53.756;21.140;2023-02-17T15:18:02;98857.68;;;6.09;77.19
64460;BME280;50828;53.756;21.140;2023-02-17T15:23:13;98851.27;;;6.08;77.23
64460;BME280;50828;53.756;21.140;2023-02-17T15:28:22;98835.27;;;6.05;77.21
64460;BME280;50828;53.756;21.140;2023-02-17T15:33:31;98823.05;;;6.05;77.53
64460;BME280;50828;53.756;21.140;2023-02-17T15:38:38;98812.96;;;6.04;77.46
64460;BME280;50828;53.756;21.140;2023-02-17T15:43:47;98803.78;;;6.02;77.45
64460;BME280;50828;53.756;21.140;2023-02-17T15:48:55;98797.15;;;6.02;77.43
64460;BME280;50828;53.756;21.140;2023-02-17T15:54:04;98781.30;;;6.00;77.47
64460;BME280;50828;53.756;21.140;2023-02-17T15:59:16;98770.31;;;6.00;77.53
64460;BME280;50828;53.756;21.140;2023-02-17T16:04:25;98758.61;;;6.00;77.73
64460;BME280;50828;53.756;21.140;2023-02-17T16:09:34;98753.54;;;6.00;77.73
64460;BME280;50828;53.756;21.140;2023-02-17T16:14:43;98737.66;;;5.99;77.95
64460;BME280;50828;53.756;21.140;2023-02-17T16:19:52;98719.84;;;5.99;77.85
64460;BME280;50828;53.756;21.140;2023-02-17T16:25:01;98705.00;;;5.99;77.86
64460;BME280;50828;53.756;21.140;2023-02-17T16:30:21;98681.94;;;5.99;77.78
64460;BME280;50828;53.756;21.140;2023-02-17T16:35:31;98656.20;;;6.00;77.87
64460;BME280;50828;53.756;21.140;2023-02-17T16:40:38;98637.88;;;5.99;77.85
64460;BME280;50828;53.756;21.140;2023-02-17T16:46:01;98629.16;;;5.98;78.07
64460;BME280;50828;53.756;21.140;2023-02-17T16:51:10;98624.25;;;6.03;78.06
64460;BME280;50828;53.756;21.140;2023-02-17T16:56:23;98614.96;;;6.08;77.95
64460;BME280;50828;53.756;21.140;2023-02-17T17:01:35;98605.90;;;6.11;78.03
64460;BME280;50828;53.756;21.140;2023-02-17T17:06:46;98592.23;;;6.12;78.20
64460;BME280;50828;53.756;21.140;2023-02-17T17:11:55;98570.69;;;6.13;78.35
64460;BME280;50828;53.756;21.140;2023-02-17T17:17:04;98573.80;;;6.13;78.44
64460;BME280;50828;53.756;21.140;2023-02-17T17:22:13;98560.13;;;6.06;78.41
64460;BME280;50828;53.756;21.140;2023-02-17T17:27:22;98554.88;;;6.14;78.53
64460;BME280;50828;53.756;21.140;2023-02-17T17:32:30;98536.40;;;6.09;78.54
64460;BME280;50828;53.756;21.140;2023-02-17T17:37:38;98526.11;;;6.16;78.78
64460;BME280;50828;53.756;21.140;2023-02-17T17:42:47;98512.26;;;6.21;78.99
64460;BME280;50828;53.756;21.140;2023-02-17T17:47:56;98500.60;;;6.23;78.99
64460;BME280;50828;53.756;21.140;2023-02-17T17:53:07;98495.80;;;6.25;78.84
64460;BME280;50828;53.756;21.140;2023-02-17T17:58:16;98481.73;;;6.27;78.99
64460;BME280;50828;53.756;21.140;2023-02-17T18:03:27;98476.48;;;6.30;79.03
64460;BME280;50828;53.756;21.140;2023-02-17T18:08:36;98460.80;;;6.33;78.95
64460;BME280;50828;53.756;21.140;2023-02-17T18:13:47;98454.56;;;6.36;78.86
64460;BME280;50828;53.756;21.140;2023-02-17T18:18:58;98444.44;;;6.38;79.07
64460;BME280;50828;53.756;21.140;2023-02-17T18:24:08;98432.23;;;6.41;78.99
64460;BME280;50828;53.756;21.140;2023-02-17T18:29:16;98423.16;;;6.45;79.08
64460;BME280;50828;53.756;21.140;2023-02-17T18:34:25;98408.98;;;6.48;79.19
64460;BME280;50828;53.756;21.140;2023-02-17T18:39:33;98401.64;;;6.52;79.11
64460;BME280;50828;53.756;21.140;2023-02-17T18:44:41;98385.88;;;6.55;79.30
64460;BME280;50828;53.756;21.140;2023-02-17T18:49:49;98377.70;;;6.58;79.24
64460;BME280;50828;53.756;21.140;2023-02-17T18:54:57;98365.88;;;6.64;79.29
64460;BME280;50828;53.756;21.140;2023-02-17T19:00:06;98352.58;;;6.67;79.49
64460;BME280;50828;53.756;21.140;2023-02-17T19:05:15;98349.83;;;6.73;79.34
64460;BME280;50828;53.756;21.140;2023-02-17T19:10:24;98339.96;;;6.77;79.51
64460;BME280;50828;53.756;21.140;2023-02-17T19:15:33;98328.38;;;6.82;79.52
64460;BME280;50828;53.756;21.140;2023-02-17T19:20:45;98319.00;;;6.87;79.86
64460;BME280;50828;53.756;21.140;2023-02-17T19:25:54;98317.70;;;6.91;79.89
64460;BME280;50828;53.756;21.140;2023-02-17T19:31:03;98313.55;;;6.97;79.78
64460;BME280;50828;53.756;21.140;2023-02-17T19:36:14;98301.55;;;7.02;79.90
64460;BME280;50828;53.756;21.140;2023-02-17T19:41:22;98297.85;;;7.06;79.88
64460;BME280;50828;53.756;21.140;2023-02-17T19:46:31;98292.31;;;7.11;80.02
64460;BME280;50828;53.756;21.140;2023-02-17T19:51:39;98286.13;;;7.15;80.18
64460;BME280;50828;53.756;21.140;2023-02-17T19:56:48;98278.40;;;7.22;80.04
64460;BME280;50828;53.756;21.140;2023-02-17T20:01:56;98272.98;;;7.28;80.24
64460;BME280;50828;53.756;21.140;2023-02-17T20:07:05;98265.27;;;7.35;80.08
64460;BME280;50828;53.756;21.140;2023-02-17T20:12:14;98257.08;;;7.40;80.12
64460;BME280;50828;53.756;21.140;2023-02-17T20:17:23;98246.52;;;7.44;80.31
64460;BME280;50828;53.756;21.140;2023-02-17T20:22:30;98233.99;;;7.49;80.37
64460;BME280;50828;53.756;21.140;2023-02-17T20:27:38;98218.80;;;7.54;80.25
64460;BME280;50828;53.756;21.140;2023-02-17T20:32:47;98223.21;;;7.60;80.18
64460;BME280;50828;53.756;21.140;2023-02-17T20:37:56;98225.54;;;7.65;80.16
64460;BME280;50828;53.756;21.140;2023-02-17T20:43:04;98235.67;;;7.68;80.37
64460;BME280;50828;53.756;21.140;2023-02-17T20:48:11;98242.18;;;7.68;80.53
64460;BME280;50828;53.756;21.140;2023-02-17T20:53:19;98227.58;;;7.69;80.34
64460;BME280;50828;53.756;21.140;2023-02-17T20:58:27;98230.16;;;7.67;80.19
64460;BME280;50828;53.756;21.140;2023-02-17T21:03:35;98222.14;;;7.66;80.33
64460;BME280;50828;53.756;21.140;2023-02-17T21:08:44;98215.23;;;7.64;79.97
64460;BME280;50828;53.756;21.140;2023-02-17T21:13:54;98224.02;;;7.61;79.82
64460;BME280;50828;53.756;21.140;2023-02-17T21:19:03;98225.59;;;7.54;79.54
64460;BME280;50828;53.756;21.140;2023-02-17T21:24:11;98222.73;;;7.47;79.26
64460;BME280;50828;53.756;21.140;2023-02-17T21:29:20;98222.58;;;7.37;78.72
64460;BME280;50828;53.756;21.140;2023-02-17T21:34:29;98232.25;;;7.24;78.43
64460;BME280;50828;53.756;21.140;2023-02-17T21:39:37;98226.02;;;7.10;77.82
64460;BME280;50828;53.756;21.140;2023-02-17T21:44:45;98226.06;;;6.93;77.40
64460;BME280;50828;53.756;21.140;2023-02-17T21:50:00;98223.64;;;6.77;77.05
64460;BME280;50828;53.756;21.140;2023-02-17T21:55:08;98229.80;;;6.60;76.46
64460;BME280;50828;53.756;21.140;2023-02-17T22:00:18;98237.86;;;6.43;76.01
64460;BME280;50828;53.756;21.140;2023-02-17T22:05:25;98243.59;;;6.28;76.04
64460;BME280;50828;53.756;21.140;2023-02-17T22:10:39;98242.05;;;6.13;75.74
64460;BME280;50828;53.756;21.140;2023-02-17T22:15:57;98251.08;;;6.01;75.56
64460;BME280;50828;53.756;21.140;2023-02-17T22:21:08;98257.21;;;5.89;74.85
64460;BME280;50828;53.756;21.140;2023-02-17T22:26:17;98251.90;;;5.80;75.13
64460;BME280;50828;53.756;21.140;2023-02-17T22:31:26;98256.48;;;5.76;74.89
64460;BME280;50828;53.756;21.140;2023-02-17T22:36:35;98252.27;;;5.73;74.89
64460;BME280;50828;53.756;21.140;2023-02-17T22:41:43;98251.39;;;5.73;75.21
64460;BME280;50828;53.756;21.140;2023-02-17T22:46:51;98257.18;;;5.76;75.21
64460;BME280;50828;53.756;21.140;2023-02-17T22:51:59;98249.80;;;5.74;74.89
64460;BME280;50828;53.756;21.140;2023-02-17T22:57:06;98241.98;;;5.69;74.58
64460;BME280;50828;53.756;21.140;2023-02-17T23:02:14;98231.45;;;5.67;74.95
64460;BME280;50828;53.756;21.140;2023-02-17T23:07:22;98214.39;;;5.65;74.96
64460;BME280;50828;53.756;21.140;2023-02-17T23:12:31;98210.38;;;5.65;75.20
64460;BME280;50828;53.756;21.140;2023-02-17T23:17:39;98205.43;;;5.66;75.07
64460;BME280;50828;53.756;21.140;2023-02-17T23:23:01;98190.73;;;5.63;75.06
64460;BME280;50828;53.756;21.140;2023-02-17T23:28:10;98188.90;;;5.59;74.81
64460;BME280;50828;53.756;21.140;2023-02-17T23:33:20;98186.45;;;5.55;74.81
64460;BME280;50828;53.756;21.140;2023-02-17T23:38:29;98179.77;;;5.53;74.86
64460;BME280;50828;53.756;21.140;2023-02-17T23:43:38;98181.50;;;5.49;74.48
64460;BME280;50828;53.756;21.140;2023-02-17T23:48:46;98170.39;;;5.45;74.37
64460;BME280;50828;53.756;21.140;2023-02-17T23:53:54;98163.77;;;5.38;74.18
64460;BME280;50828;53.756;21.140;2023-02-17T23:59:02;98173.76;;;5.33;74.02
